createdAt,value
2018-01-14T00:00:04.204Z,16.17
2018-01-14T00:02:31.650Z,16.73
2018-01-14T00:04:59.202Z,17.63
2018-01-14T00:07:26.646Z,17.67
2018-01-14T00:09:54.134Z,17.63
2018-01-14T00:12:21.576Z,16.80
2018-01-14T00:14:49.038Z,17.87
2018-01-14T00:17:16.499Z,18.57
2018-01-14T00:19:44.710Z,16.30
2018-01-14T00:22:12.183Z,17.10
2018-01-14T00:24:39.708Z,15.93
2018-01-14T00:27:07.166Z,16.73
2018-01-14T00:29:35.132Z,16.53
2018-01-14T00:32:03.832Z,18.00
2018-01-14T00:34:31.730Z,19.20
2018-01-14T00:36:59.260Z,19.80
2018-01-14T00:39:26.719Z,18.00
2018-01-14T00:41:54.202Z,18.03
2018-01-14T00:44:22.449Z,19.37
2018-01-14T00:46:49.924Z,21.00
2018-01-14T00:49:18.146Z,21.13
2018-01-14T00:51:45.603Z,20.30
2018-01-14T00:54:13.085Z,19.50
2018-01-14T00:56:40.551Z,19.00
2018-01-14T00:59:08.007Z,20.23
2018-01-14T01:01:35.467Z,19.60
2018-01-14T01:04:02.919Z,21.60
2018-01-14T01:06:30.379Z,19.93
2018-01-14T01:08:57.826Z,19.63
2018-01-14T01:11:26.061Z,20.70
2018-01-14T01:13:53.517Z,20.80
2018-01-14T01:16:20.979Z,19.53
2018-01-14T01:18:48.422Z,20.50
2018-01-14T01:21:15.885Z,22.00
2018-01-14T01:23:43.327Z,21.43
2018-01-14T01:26:10.791Z,23.60
2018-01-14T01:28:38.254Z,22.87
2018-01-14T01:31:05.702Z,22.33
2018-01-14T01:33:33.179Z,21.80
2018-01-14T01:36:00.635Z,21.37
2018-01-14T01:38:28.087Z,21.53
2018-01-14T01:40:55.543Z,21.27
2018-01-14T01:43:22.999Z,22.50
2018-01-14T01:45:50.456Z,22.97
2018-01-14T01:48:17.915Z,23.60
2018-01-14T01:50:45.370Z,21.97
2018-01-14T01:53:13.159Z,22.77
2018-01-14T01:55:40.598Z,23.83
2018-01-14T01:58:08.058Z,22.97
2018-01-14T02:00:35.522Z,23.70
2018-01-14T02:03:02.990Z,23.73
2018-01-14T02:05:30.439Z,23.00
2018-01-14T02:07:57.903Z,23.13
2018-01-14T02:10:25.352Z,23.40
2018-01-14T02:12:52.807Z,22.07
2018-01-14T02:15:20.269Z,23.33
2018-01-14T02:17:47.727Z,23.37
2018-01-14T02:20:15.174Z,23.77
2018-01-14T02:22:42.633Z,22.37
2018-01-14T02:25:10.099Z,23.30
2018-01-14T02:27:37.566Z,22.47
2018-01-14T02:30:05.013Z,23.90
2018-01-14T02:32:32.479Z,24.63
2018-01-14T02:34:59.927Z,23.87
2018-01-14T02:37:27.379Z,23.37
2018-01-14T02:39:55.040Z,24.40
2018-01-14T02:42:23.123Z,23.20
2018-01-14T02:44:50.615Z,22.47
2018-01-14T02:47:18.824Z,23.83
2018-01-14T02:49:46.286Z,23.77
2018-01-14T02:52:13.754Z,23.67
2018-01-14T02:54:41.214Z,23.43
2018-01-14T02:57:08.667Z,22.63
2018-01-14T02:59:36.136Z,22.83
2018-01-14T03:02:03.590Z,20.83
2018-01-14T03:04:31.047Z,20.90
2018-01-14T03:06:58.490Z,21.77
2018-01-14T03:09:25.947Z,22.70
2018-01-14T03:11:53.402Z,22.70
2018-01-14T03:14:21.642Z,22.07
2018-01-14T03:16:49.098Z,23.00
2018-01-14T03:19:16.558Z,25.37
2018-01-14T03:21:44.010Z,22.10
2018-01-14T03:24:11.472Z,22.30
2018-01-14T03:26:38.923Z,23.07
2018-01-14T03:29:06.380Z,25.00
2018-01-14T03:31:33.834Z,23.83
2018-01-14T03:34:01.305Z,21.70
2018-01-14T03:36:28.746Z,24.27
2018-01-14T03:38:56.202Z,24.90
2018-01-14T03:41:23.662Z,24.10
2018-01-14T03:43:51.118Z,23.90
2018-01-14T03:46:18.575Z,24.97
2018-01-14T03:48:46.206Z,24.53
2018-01-14T03:51:13.657Z,24.53
2018-01-14T03:53:41.112Z,23.50
2018-01-14T03:56:09.344Z,24.00
2018-01-14T03:58:36.790Z,23.10
2018-01-14T04:01:04.254Z,22.87
2018-01-14T04:03:31.706Z,22.67
2018-01-14T04:05:59.167Z,22.90
2018-01-14T04:08:26.614Z,22.20
2018-01-14T04:10:54.079Z,21.40
2018-01-14T04:13:21.522Z,22.27
2018-01-14T04:15:48.987Z,21.00
2018-01-14T04:18:16.448Z,21.70
2018-01-14T04:20:43.904Z,21.80
2018-01-14T04:23:11.360Z,20.60
2018-01-14T04:25:38.819Z,21.73
2018-01-14T04:28:06.263Z,21.97
2018-01-14T04:30:33.722Z,22.23
2018-01-14T04:33:01.167Z,21.83
2018-01-14T04:35:28.622Z,21.40
2018-01-14T04:37:56.082Z,21.27
2018-01-14T04:40:23.535Z,22.20
2018-01-14T04:42:50.987Z,21.50
2018-01-14T04:45:19.210Z,22.47
2018-01-14T04:47:46.654Z,20.20
2018-01-14T04:50:14.123Z,20.60
2018-01-14T04:52:41.566Z,20.30
2018-01-14T04:55:09.028Z,22.30
2018-01-14T04:57:36.483Z,22.23
2018-01-14T05:00:03.946Z,19.80
2018-01-14T05:02:31.395Z,21.50
2018-01-14T05:04:58.847Z,21.57
2018-01-14T05:07:26.302Z,21.67
2018-01-14T05:09:53.752Z,22.07
2018-01-14T05:12:21.220Z,22.27
2018-01-14T05:14:48.674Z,20.80
2018-01-14T05:17:16.132Z,23.23
2018-01-14T05:19:43.589Z,22.33
2018-01-14T05:22:11.043Z,20.63
2018-01-14T05:24:38.498Z,20.30
2018-01-14T05:27:05.969Z,20.63
2018-01-14T05:29:33.410Z,22.50
2018-01-14T05:32:00.878Z,21.63
2018-01-14T05:34:28.322Z,20.97
2018-01-14T05:36:55.783Z,20.60
2018-01-14T05:39:23.234Z,20.30
2018-01-14T05:41:50.699Z,21.03
2018-01-14T05:44:18.149Z,20.17
2018-01-14T05:46:45.607Z,20.83
2018-01-14T05:49:13.058Z,19.07
2018-01-14T05:51:40.516Z,22.10
2018-01-14T05:54:07.971Z,21.97
2018-01-14T05:56:35.431Z,19.80
2018-01-14T05:59:02.882Z,20.40
2018-01-14T06:01:30.340Z,20.30
2018-01-14T06:03:57.795Z,20.13
2018-01-14T06:06:25.254Z,20.50
2018-01-14T06:08:52.698Z,20.60
2018-01-14T06:11:20.168Z,19.57
2018-01-14T06:13:47.619Z,19.60
2018-01-14T06:16:15.079Z,19.83
2018-01-14T06:18:42.530Z,19.77
2018-01-14T06:21:09.979Z,17.67
2018-01-14T06:23:37.447Z,18.00
2018-01-14T06:26:04.894Z,18.50
2018-01-14T06:28:32.360Z,18.60
2018-01-14T06:30:59.807Z,18.20
2018-01-14T06:33:27.270Z,17.67
2018-01-14T06:35:54.722Z,19.50
2018-01-14T06:38:22.186Z,17.40
2018-01-14T06:40:49.643Z,18.83
2018-01-14T06:43:17.099Z,18.27
2018-01-14T06:45:44.542Z,17.40
2018-01-14T06:48:11.998Z,19.13
2018-01-14T06:50:39.482Z,18.03
2018-01-14T06:53:06.935Z,18.37
2018-01-14T06:55:34.378Z,18.07
2018-01-14T06:58:01.834Z,17.57
2018-01-14T07:00:29.291Z,18.10
2018-01-14T07:02:56.746Z,18.13
2018-01-14T07:05:24.204Z,20.27
2018-01-14T07:07:51.660Z,20.23
2018-01-14T07:10:19.106Z,21.50
2018-01-14T07:12:46.562Z,23.63
2018-01-14T07:15:14.011Z,18.23
2018-01-14T07:17:41.484Z,17.43
2018-01-14T07:20:08.930Z,15.60
2018-01-14T07:22:36.390Z,17.43
2018-01-14T07:25:03.851Z,17.07
2018-01-14T07:27:31.298Z,15.20
2018-01-14T07:29:58.762Z,17.00
2018-01-14T07:32:26.223Z,13.80
2018-01-14T07:34:53.682Z,14.00
2018-01-14T07:37:21.130Z,16.00
2018-01-14T07:39:48.587Z,13.07
2018-01-14T07:42:16.051Z,15.03
2018-01-14T07:44:43.503Z,15.80
2018-01-14T07:47:10.947Z,17.53
2018-01-14T07:49:38.415Z,15.57
2018-01-14T07:52:05.880Z,15.37
2018-01-14T07:54:33.330Z,15.03
2018-01-14T07:57:00.783Z,20.23
2018-01-14T07:59:28.240Z,15.60
2018-01-14T08:01:55.695Z,15.73
2018-01-14T08:04:23.207Z,17.73
2018-01-14T08:06:50.606Z,16.40
2018-01-14T08:09:18.068Z,14.80
2018-01-14T08:11:45.530Z,16.40
2018-01-14T08:14:12.984Z,17.17
2018-01-14T08:16:40.439Z,13.90
2018-01-14T08:19:07.898Z,15.70
2018-01-14T08:21:35.345Z,16.93
2018-01-14T08:24:02.811Z,17.60
2018-01-14T08:26:30.262Z,18.47
2018-01-14T08:28:57.722Z,17.00
2018-01-14T08:31:25.179Z,15.17
2018-01-14T08:33:52.647Z,14.83
2018-01-14T08:36:20.102Z,14.93
2018-01-14T08:38:47.714Z,14.60
2018-01-14T08:41:15.174Z,17.40
2018-01-14T08:43:43.170Z,16.73
2018-01-14T08:46:10.626Z,14.63
2018-01-14T08:48:39.748Z,12.90
2018-01-14T08:51:07.302Z,15.33
2018-01-14T08:53:34.754Z,14.20
2018-01-14T08:56:02.219Z,15.70
2018-01-14T08:58:29.672Z,15.57
2018-01-14T09:00:57.143Z,17.23
2018-01-14T09:03:24.615Z,15.37
2018-01-14T09:05:52.139Z,14.60
2018-01-14T09:08:19.578Z,16.03
2018-01-14T09:10:47.035Z,14.60
2018-01-14T09:13:14.487Z,16.13
2018-01-14T09:15:41.947Z,15.57
2018-01-14T09:18:09.402Z,13.77
2018-01-14T09:20:36.867Z,15.53
2018-01-14T09:23:04.641Z,15.23
2018-01-14T09:25:32.147Z,15.50
2018-01-14T09:27:59.620Z,15.70
2018-01-14T09:30:38.856Z,15.03
2018-01-14T09:33:06.458Z,15.80
2018-01-14T09:35:33.950Z,14.90
2018-01-14T09:38:02.216Z,16.43
2018-01-14T09:40:29.827Z,15.43
2018-01-14T09:42:57.315Z,15.30
2018-01-14T09:45:24.804Z,17.17
2018-01-14T09:47:52.318Z,19.00
2018-01-14T09:50:19.812Z,16.20
2018-01-14T09:52:48.143Z,17.60
2018-01-14T09:55:15.848Z,14.60
2018-01-14T09:57:43.319Z,15.03
2018-01-14T10:00:10.835Z,15.37
2018-01-14T10:02:38.319Z,15.40
2018-01-14T10:05:07.290Z,15.83
2018-01-14T10:07:35.564Z,14.33
2018-01-14T10:10:03.038Z,14.47
2018-01-14T10:12:30.487Z,16.40
2018-01-14T10:14:57.954Z,14.90
2018-01-14T10:17:26.217Z,14.30
2018-01-14T10:19:53.699Z,14.33
2018-01-14T10:22:21.259Z,14.90
2018-01-14T10:24:48.706Z,15.47
2018-01-14T10:27:16.939Z,14.97
2018-01-14T10:29:44.395Z,14.27
2018-01-14T10:32:11.842Z,14.63
2018-01-14T10:34:39.298Z,14.87
2018-01-14T10:37:06.758Z,13.77
2018-01-14T10:39:34.223Z,13.03
2018-01-14T10:42:01.703Z,14.70
2018-01-14T10:44:29.162Z,14.30
2018-01-14T10:46:57.442Z,14.60
2018-01-14T10:49:25.663Z,14.17
2018-01-14T10:51:53.119Z,14.03
2018-01-14T10:54:20.574Z,12.90
2018-01-14T10:56:48.040Z,12.67
2018-01-14T10:59:15.488Z,12.80
2018-01-14T11:01:42.944Z,12.13
2018-01-14T11:04:10.398Z,14.77
2018-01-14T11:06:37.854Z,13.03
2018-01-14T11:09:05.310Z,12.60
2018-01-14T11:11:32.766Z,14.17
2018-01-14T11:14:00.227Z,11.80
2018-01-14T11:16:27.683Z,10.70
2018-01-14T11:18:55.907Z,10.37
2018-01-14T11:21:24.131Z,10.73
2018-01-14T11:23:51.591Z,11.13
2018-01-14T11:26:19.049Z,11.70
2018-01-14T11:28:52.443Z,10.50
2018-01-14T11:31:19.896Z,10.03
2018-01-14T11:33:48.140Z,11.90
2018-01-14T11:36:16.218Z,10.67
2018-01-14T11:38:43.679Z,10.50
2018-01-14T11:41:11.127Z,10.80
2018-01-14T11:43:38.582Z,11.03
2018-01-14T11:46:06.040Z,11.43
2018-01-14T11:48:33.499Z,11.57
2018-01-14T11:51:00.950Z,9.80
2018-01-14T11:53:28.418Z,11.90
2018-01-14T11:55:55.863Z,12.17
2018-01-14T11:58:23.335Z,11.70
2018-01-14T12:00:51.015Z,12.90
2018-01-14T12:03:18.495Z,12.60
2018-01-14T12:05:45.941Z,11.33
2018-01-14T12:08:13.402Z,12.93
2018-01-14T12:10:40.854Z,11.80
2018-01-14T12:13:08.323Z,12.03
2018-01-14T12:15:35.774Z,12.40
2018-01-14T12:18:03.235Z,10.80
2018-01-14T12:20:30.682Z,11.20
2018-01-14T12:22:58.142Z,12.20
2018-01-14T12:25:25.603Z,11.60
2018-01-14T12:27:53.063Z,10.57
2018-01-14T12:30:20.521Z,8.80
2018-01-14T12:32:59.694Z,10.23
2018-01-14T12:35:27.157Z,10.63
2018-01-14T12:37:54.614Z,10.07
2018-01-14T12:40:22.079Z,10.73
2018-01-14T12:42:49.536Z,10.90
2018-01-14T12:45:16.994Z,11.27
2018-01-14T12:47:44.446Z,12.10
2018-01-14T12:50:11.906Z,9.80
2018-01-14T12:52:39.358Z,10.87
2018-01-14T12:55:06.854Z,10.57
2018-01-14T12:57:34.341Z,11.60
2018-01-14T13:00:02.567Z,11.17
2018-01-14T13:02:30.073Z,9.60
2018-01-14T13:04:58.290Z,7.07
2018-01-14T13:07:25.820Z,9.97
2018-01-14T13:09:53.319Z,11.50
2018-01-14T13:12:20.990Z,9.03
2018-01-14T13:14:48.503Z,9.10
2018-01-14T13:17:15.945Z,10.13
2018-01-14T13:19:43.398Z,10.20
2018-01-14T13:22:11.011Z,10.20
2018-01-14T13:24:39.277Z,10.10
2018-01-14T13:27:06.728Z,10.10
2018-01-14T13:29:34.218Z,11.30
2018-01-14T13:32:01.662Z,10.03
2018-01-14T13:34:29.119Z,10.60
2018-01-14T13:36:56.574Z,10.13
2018-01-14T13:39:24.034Z,9.43
2018-01-14T13:41:51.474Z,9.17
2018-01-14T13:44:18.944Z,11.37
2018-01-14T13:46:46.398Z,8.33
2018-01-14T13:49:13.855Z,9.07
2018-01-14T13:51:41.353Z,10.63
2018-01-14T13:54:08.807Z,10.50
2018-01-14T13:56:36.250Z,9.17
2018-01-14T13:59:04.535Z,9.43
2018-01-14T14:01:32.750Z,9.53
2018-01-14T14:04:00.194Z,8.10
2018-01-14T14:06:27.647Z,9.53
2018-01-14T14:08:55.107Z,9.10
2018-01-14T14:11:22.559Z,9.70
2018-01-14T14:13:50.019Z,10.80
2018-01-14T14:16:17.475Z,9.00
2018-01-14T14:18:44.932Z,12.93
2018-01-14T14:21:13.155Z,10.30
2018-01-14T14:23:40.603Z,11.63
2018-01-14T14:26:08.058Z,9.93
2018-01-14T14:28:35.515Z,9.00
2018-01-14T14:31:03.021Z,10.83
2018-01-14T14:33:30.507Z,9.97
2018-01-14T14:35:57.976Z,10.27
2018-01-14T14:38:25.415Z,9.90
2018-01-14T14:40:52.894Z,8.50
2018-01-14T14:43:20.381Z,10.67
2018-01-14T14:45:48.594Z,12.07
2018-01-14T14:48:16.046Z,11.73
2018-01-14T14:50:43.511Z,11.57
2018-01-14T14:53:10.953Z,10.17
2018-01-14T14:55:38.571Z,10.53
2018-01-14T14:58:06.019Z,12.30
2018-01-14T15:00:33.467Z,10.80
2018-01-14T15:03:00.922Z,11.33
2018-01-14T15:05:28.383Z,11.13
2018-01-14T15:07:55.882Z,10.03
2018-01-14T15:10:23.332Z,10.07
2018-01-14T15:12:50.784Z,11.80
2018-01-14T15:15:19.084Z,12.00
2018-01-14T15:17:46.594Z,10.13
2018-01-14T15:20:14.046Z,11.13
2018-01-14T15:22:41.545Z,10.17
2018-01-14T15:25:08.978Z,8.90
2018-01-14T15:27:37.199Z,10.47
2018-01-14T15:30:04.647Z,11.50
2018-01-14T15:32:32.108Z,10.97
2018-01-14T15:34:59.563Z,10.80
2018-01-14T15:37:27.059Z,9.90
2018-01-14T15:39:54.496Z,9.73
2018-01-14T15:42:21.970Z,10.90
2018-01-14T15:44:49.465Z,10.33
2018-01-14T15:47:17.943Z,11.00
2018-01-14T15:49:46.282Z,11.10
2018-01-14T15:52:13.752Z,11.43
2018-01-14T15:54:41.249Z,11.10
2018-01-14T15:57:08.710Z,12.03
2018-01-14T15:59:36.162Z,12.70
2018-01-14T16:02:03.611Z,13.60
2018-01-14T16:04:31.074Z,14.83
2018-01-14T16:06:58.573Z,14.00
2018-01-14T16:09:26.014Z,13.00
2018-01-14T16:11:53.468Z,14.50
2018-01-14T16:14:20.923Z,14.53
2018-01-14T16:16:48.375Z,15.03
2018-01-14T16:19:15.839Z,14.87
2018-01-14T16:21:43.278Z,13.87
2018-01-14T16:24:10.736Z,13.70
2018-01-14T16:26:38.960Z,13.77
2018-01-14T16:29:07.187Z,14.70
2018-01-14T16:31:34.636Z,15.73
2018-01-14T16:34:02.141Z,19.13
2018-01-14T16:36:29.616Z,19.40
2018-01-14T16:38:57.885Z,21.70
2018-01-14T16:41:25.327Z,17.83
2018-01-14T16:43:52.825Z,19.70
2018-01-14T16:46:20.270Z,19.87
2018-01-14T16:48:47.719Z,17.13
2018-01-14T16:51:15.985Z,19.77
2018-01-14T16:53:44.215Z,19.00
2018-01-14T16:56:11.717Z,22.10
2018-01-14T16:58:39.944Z,22.77
2018-01-14T17:01:07.443Z,24.17
2018-01-14T17:03:34.939Z,21.40
2018-01-14T17:06:03.024Z,23.80
2018-01-14T17:08:30.525Z,23.00
2018-01-14T17:10:57.971Z,27.80
2018-01-14T17:13:25.427Z,24.07
2018-01-14T17:15:53.048Z,25.40
2018-01-14T17:18:20.507Z,23.57
2018-01-14T17:20:48.201Z,22.67
2018-01-14T17:23:15.892Z,21.00
2018-01-14T17:25:44.099Z,21.30
2018-01-14T17:28:11.571Z,20.37
2018-01-14T17:30:39.076Z,18.10
2018-01-14T17:33:07.536Z,14.50
2018-01-14T17:35:34.995Z,16.70
2018-01-14T17:38:17.608Z,17.67
2018-01-14T17:40:45.056Z,15.80
2018-01-14T17:43:12.552Z,16.47
2018-01-14T17:45:40.025Z,15.43
2018-01-14T17:48:07.534Z,18.53
2018-01-14T17:50:34.986Z,15.40
2018-01-14T17:53:02.439Z,14.80
2018-01-14T17:55:30.136Z,15.43
2018-01-14T17:57:59.135Z,17.33
2018-01-14T18:00:26.591Z,16.77
2018-01-14T18:02:54.047Z,17.47
2018-01-14T18:05:21.511Z,16.73
2018-01-14T18:07:48.954Z,16.90
2018-01-14T18:10:17.186Z,16.57
2018-01-14T18:12:44.682Z,16.73
2018-01-14T18:15:13.134Z,16.03
2018-01-14T18:17:40.624Z,16.90
2018-01-14T18:20:09.068Z,15.47
2018-01-14T18:22:36.556Z,16.97
2018-01-14T18:25:04.242Z,17.70
2018-01-14T18:27:31.704Z,16.77
2018-01-14T18:29:59.212Z,16.20
2018-01-14T18:32:26.696Z,15.93
2018-01-14T18:34:55.181Z,16.63
2018-01-14T18:37:23.085Z,15.50
2018-01-14T18:39:50.589Z,16.83
2018-01-14T18:42:18.054Z,17.43
2018-01-14T18:44:45.568Z,19.70
2018-01-14T18:47:13.019Z,18.50
2018-01-14T18:49:41.371Z,22.97
2018-01-14T18:52:08.856Z,20.37
2018-01-14T18:54:36.370Z,21.07
2018-01-14T18:57:03.895Z,23.40
2018-01-14T18:59:31.350Z,21.77
2018-01-14T19:01:58.861Z,21.70
2018-01-14T19:04:26.370Z,23.30
2018-01-14T19:06:53.829Z,22.13
2018-01-14T19:09:22.082Z,22.47
2018-01-14T19:11:49.555Z,22.03
2018-01-14T19:14:17.842Z,23.23
2018-01-14T19:16:46.109Z,23.70
2018-01-14T19:19:14.537Z,23.83
2018-01-14T19:21:45.566Z,24.70
2018-01-14T19:24:13.070Z,25.43
2018-01-14T19:26:40.534Z,30.33
2018-01-14T19:29:08.031Z,28.83
2018-01-14T19:31:35.512Z,25.33
2018-01-14T19:34:02.975Z,22.63
2018-01-14T19:36:31.477Z,23.50
2018-01-14T19:38:58.964Z,23.47
2018-01-14T19:41:27.196Z,28.70
2018-01-14T19:43:54.647Z,26.37
2018-01-14T19:46:22.122Z,26.57
2018-01-14T19:48:49.741Z,25.80
2018-01-14T19:51:18.025Z,33.13
2018-01-14T19:53:45.542Z,28.83
2018-01-14T19:56:13.791Z,25.30
2018-01-14T19:58:41.305Z,27.00
2018-01-14T20:01:10.743Z,26.70
2018-01-14T20:03:38.237Z,24.10
2018-01-14T20:06:05.766Z,23.73
2018-01-14T20:08:33.270Z,24.73
2018-01-14T20:11:00.771Z,27.10
2018-01-14T20:13:28.298Z,25.03
2018-01-14T20:15:55.770Z,25.77
2018-01-14T20:18:23.334Z,25.33
2018-01-14T20:20:50.871Z,24.93
2018-01-14T20:23:18.406Z,26.00
2018-01-14T20:25:45.936Z,25.30
2018-01-14T20:28:13.401Z,24.87
2018-01-14T20:30:40.874Z,26.13
2018-01-14T20:33:08.409Z,25.17
2018-01-14T20:35:35.926Z,28.60
2018-01-14T20:38:03.438Z,25.90
2018-01-14T20:40:31.667Z,25.40
2018-01-14T20:42:59.151Z,28.00
2018-01-14T20:45:27.434Z,30.50
2018-01-14T20:47:55.720Z,27.80
2018-01-14T20:50:24.891Z,26.07
2018-01-14T20:52:52.400Z,27.43
2018-01-14T20:55:19.863Z,26.23
2018-01-14T20:57:47.427Z,24.03
2018-01-14T21:00:15.651Z,25.30
2018-01-14T21:02:43.936Z,23.63
2018-01-14T21:05:12.215Z,22.30
2018-01-14T21:07:40.494Z,22.57
2018-01-14T21:10:08.715Z,21.43
2018-01-14T21:12:36.246Z,19.93
2018-01-14T21:15:03.776Z,25.60
2018-01-14T21:17:32.030Z,31.20
2018-01-14T21:20:01.367Z,33.40
2018-01-14T21:22:28.951Z,27.90
2018-01-14T21:24:56.438Z,23.13
2018-01-14T21:27:23.933Z,22.03
2018-01-14T21:29:51.467Z,23.70
2018-01-14T21:32:18.960Z,23.43
2018-01-14T21:34:46.443Z,25.20
2018-01-14T21:37:13.949Z,22.40
2018-01-14T21:39:42.184Z,21.67
2018-01-14T21:42:09.693Z,18.50
2018-01-14T21:44:37.953Z,20.27
2018-01-14T21:47:06.234Z,20.07
2018-01-14T21:49:33.766Z,20.40
2018-01-14T21:52:01.279Z,20.27
2018-01-14T21:54:28.749Z,23.90
2018-01-14T21:56:56.261Z,25.80
2018-01-14T21:59:24.544Z,23.17
2018-01-14T22:01:52.788Z,22.40
2018-01-14T22:04:20.906Z,22.10
2018-01-14T22:06:48.355Z,24.63
2018-01-14T22:09:15.870Z,25.20
2018-01-14T22:11:43.362Z,25.13
2018-01-14T22:14:10.861Z,23.57
2018-01-14T22:16:38.317Z,21.90
2018-01-14T22:19:05.780Z,21.00
2018-01-14T22:21:33.237Z,21.10
2018-01-14T22:24:00.713Z,21.20
2018-01-14T22:26:28.210Z,21.17
2018-01-14T22:28:55.713Z,22.57
2018-01-14T22:31:23.201Z,23.73
2018-01-14T22:33:51.460Z,23.30
2018-01-14T22:36:18.962Z,20.63
2018-01-14T22:38:46.466Z,19.27
2018-01-14T22:41:13.927Z,20.87
2018-01-14T22:43:41.387Z,23.30
2018-01-14T22:46:08.844Z,20.97
2018-01-14T22:48:36.662Z,22.47
2018-01-14T22:51:04.173Z,21.73
2018-01-14T22:53:31.624Z,21.90
2018-01-14T22:55:59.087Z,21.07
2018-01-14T22:58:27.307Z,20.33
2018-01-14T23:00:54.823Z,21.60
2018-01-14T23:03:23.042Z,19.83
2018-01-14T23:05:50.536Z,19.87
2018-01-14T23:08:17.990Z,21.50
2018-01-14T23:10:45.455Z,20.57
2018-01-14T23:13:12.966Z,20.03
2018-01-14T23:15:40.455Z,21.50
2018-01-14T23:18:08.013Z,21.13
2018-01-14T23:20:36.371Z,21.27
2018-01-14T23:23:03.836Z,22.30
2018-01-14T23:25:31.308Z,21.90
2018-01-14T23:27:58.770Z,22.53
2018-01-14T23:30:26.235Z,21.80
2018-01-14T23:32:54.459Z,22.20
2018-01-14T23:35:21.972Z,22.30
2018-01-14T23:37:50.264Z,21.80
2018-01-14T23:40:18.959Z,23.30
2018-01-14T23:42:46.421Z,22.03
2018-01-14T23:45:13.887Z,20.63
2018-01-14T23:47:41.343Z,21.67
2018-01-14T23:50:08.816Z,22.10
2018-01-14T23:52:36.288Z,21.60
2018-01-14T23:55:03.756Z,22.40
2018-01-14T23:57:31.218Z,20.40
2018-01-14T23:59:58.663Z,20.90
